Fern Glen, Pennsylvania
Current Conditions -  °F | °C
As of 7:15 AM on Sunday 25 Jan 2015 (Local Time) from KHZL Reporting Station
Light Snow Light Snow  
Wind Chill: 24°   Ceiling: 700
Heat Index: 32°   Visibility: 4mi
Dew Point: 30°   Wind: 10mph
Humidity: 93%   Direction: 270°W
Pressure: 29.66"   Gusts: NA
Location:  40.9427°N, 76.1676°W
Report Text: KHZL 251215Z AUTO 27009KT 4SM -SN OVC007 00/M01 A2966 RMK AO2
Loading
Personal Weather Stations






























Interactive Weather Map New forecast layout! Learn more

10-Day Weather Forecast

Advertisements
Track Severe Weather on mobile